Time;durP1;ratioP1;P1;durP2;ratioP2;P2;SDS_P1;SDS_P2;PMS_P1;PMS_P2;Temp;Humidity;BMP_temperature;BMP_pressure;BME280_temperature;BME280_humidity;BME280_pressure;Samples;Min_cycle;Max_cycle;Signal;HPM_P1;HPM_P2
2022/08/21 00:00:31;;;;;;;;;6.25;6.25;;;;;23.40;44.38;101181.38;2113223;27;47176;-51
2022/08/21 00:01:32;;;;;;;;;8.00;8.00;;;;;23.41;44.30;101174.09;2104257;28;47760;-49
2022/08/21 00:02:32;;;;;;;;;4.25;4.00;;;;;23.40;44.35;101173.25;2101034;28;47784;-54
2022/08/21 00:03:33;;;;;;;;;8.50;7.00;;;;;23.40;44.59;101173.25;2104327;28;46666;-49
2022/08/21 00:04:33;;;;;;;;;9.00;8.00;;;;;23.40;44.43;101172.38;2105644;27;46914;-52
2022/08/21 00:05:38;;;;;;;;;8.75;8.75;;;;;23.41;44.52;101169.56;2078182;28;47047;-51
2022/08/21 00:06:39;;;;;;;;;8.00;8.00;;;;;23.42;44.48;101167.72;2079180;28;47577;-51
2022/08/21 00:07:39;;;;;;;;;6.25;5.50;;;;;23.40;44.87;101165.13;2096161;28;47656;-54
2022/08/21 00:08:40;;;;;;;;;7.00;5.50;;;;;23.38;44.68;101164.34;2079082;28;47192;-54
2022/08/21 00:09:41;;;;;;;;;5.00;5.00;;;;;23.38;44.69;101163.50;2078851;28;47627;-54
2022/08/21 00:10:42;;;;;;;;;3.25;3.25;;;;;23.39;44.67;101165.22;2105377;27;47287;-53
2022/08/21 00:11:43;;;;;;;;;5.80;4.80;;;;;23.39;44.54;101157.09;2104601;28;46718;-50
2022/08/21 00:12:45;;;;;;;;;6.50;5.00;;;;;23.41;44.66;101163.28;2105488;27;47963;-50
2022/08/21 00:13:46;;;;;;;;;6.00;5.20;;;;;23.43;44.52;101170.31;2105365;27;48036;-53
2022/08/21 00:14:46;;;;;;;;;6.00;5.00;;;;;23.45;44.90;101156.66;2095519;28;47835;-50
2022/08/21 00:15:47;;;;;;;;;5.00;5.00;;;;;23.47;44.70;101152.00;2101997;27;47842;-51
2022/08/21 00:16:48;;;;;;;;;6.00;2.20;;;;;23.48;44.47;101157.31;2108035;27;47392;-52
2022/08/21 00:17:48;;;;;;;;;4.75;4.00;;;;;23.51;44.93;101155.41;2094931;28;47560;-51
2022/08/21 00:18:49;;;;;;;;;3.00;3.00;;;;;23.54;44.98;101156.03;2101934;27;47663;-50
2022/08/21 00:19:49;;;;;;;;;4.25;4.00;;;;;23.54;44.87;101156.03;2104854;28;47241;-52
2022/08/21 00:20:50;;;;;;;;;4.25;3.00;;;;;23.57;44.80;101157.66;2087162;28;47367;-52
2022/08/21 00:21:52;;;;;;;;;5.50;5.00;;;;;23.58;44.74;101151.31;2087524;28;48164;-53
2022/08/21 00:22:53;;;;;;;;;4.00;3.60;;;;;23.58;44.76;101154.88;2104310;28;47430;-49
2022/08/21 00:23:53;;;;;;;;;4.40;4.00;;;;;23.59;44.43;101148.47;2105127;27;47658;-50
2022/08/21 00:24:53;;;;;;;;;4.75;4.00;;;;;23.60;44.77;101152.06;2096663;28;47655;-53
2022/08/21 00:25:54;;;;;;;;;4.00;4.00;;;;;23.62;44.58;101144.69;2103622;28;46978;-55
2022/08/21 00:26:54;;;;;;;;;3.50;3.50;;;;;23.63;44.44;101149.13;2108906;27;47488;-53
2022/08/21 00:27:55;;;;;;;;;2.75;2.75;;;;;23.62;44.93;101147.41;2104408;28;47336;-51
2022/08/21 00:28:56;;;;;;;;;2.00;2.00;;;;;23.62;45.08;101150.97;2105210;27;47865;-54
2022/08/21 00:29:56;;;;;;;;;2.75;2.75;;;;;23.63;44.71;101147.31;2107791;27;47461;-52
2022/08/21 00:30:58;;;;;;;;;3.00;3.00;;;;;23.64;44.70;101153.59;2107913;27;47483;-53
2022/08/21 00:31:58;;;;;;;;;7.40;4.20;;;;;23.64;44.63;101151.75;2106542;27;47428;-53
2022/08/21 00:33:00;;;;;;;;;3.50;3.50;;;;;23.66;44.81;101151.66;2106606;27;47267;-51
2022/08/21 00:34:01;;;;;;;;;5.00;3.80;;;;;23.66;44.62;101146.22;2097150;28;47290;-52
2022/08/21 00:35:01;;;;;;;;;2.80;2.80;;;;;23.66;44.66;101147.09;2097651;28;48063;-52
2022/08/21 00:36:02;;;;;;;;;1.75;1.75;;;;;23.66;44.83;101144.38;2105823;27;47564;-52
2022/08/21 00:37:04;;;;;;;;;1.00;0.20;;;;;23.67;44.87;101147.97;2114062;27;47513;-52
2022/08/21 00:38:06;;;;;;;;;1.00;1.00;;;;;23.66;44.92;101147.09;2111225;27;47720;-53
2022/08/21 00:39:08;;;;;;;;;2.00;1.50;;;;;23.66;44.70;101141.69;2106073;28;46457;-52
2022/08/21 00:40:13;;;;;;;;;4.00;3.80;;;;;23.67;44.77;101147.97;2113025;27;47231;-52
2022/08/21 00:41:14;;;;;;;;;3.00;3.00;;;;;23.65;44.67;101147.22;2106317;27;47399;-51
2022/08/21 00:42:15;;;;;;;;;4.25;3.00;;;;;23.67;45.00;101146.13;2105760;28;47887;-52
2022/08/21 00:43:21;;;;;;;;;4.80;3.40;;;;;23.67;44.80;101150.69;2106947;27;47713;-50
2022/08/21 00:44:21;;;;;;;;;4.00;3.20;;;;;23.67;44.77;101145.25;2106833;27;47807;-52
2022/08/21 00:45:23;;;;;;;;;3.00;3.00;;;;;23.68;45.07;101155.13;2105900;28;47420;-51
2022/08/21 00:46:24;;;;;;;;;3.00;3.00;;;;;23.68;44.83;101149.69;2106799;27;47230;-52
2022/08/21 00:47:24;;;;;;;;;4.75;3.50;;;;;23.66;44.99;101151.66;2106235;27;47359;-54
2022/08/21 00:48:25;;;;;;;;;3.50;3.00;;;;;23.65;44.70;101153.50;2106237;28;47368;-50
2022/08/21 00:49:26;;;;;;;;;5.33;4.00;;;;;23.64;44.87;101149.06;2106402;27;46494;-54
2022/08/21 00:50:32;;;;;;;;;2.00;2.00;;;;;23.64;44.94;101145.47;2096606;28;47155;-53
2022/08/21 00:51:39;;;;;;;;;3.00;3.00;;;;;23.64;44.78;101145.47;2098024;28;47776;-54
2022/08/21 00:52:41;;;;;;;;;3.00;2.80;;;;;23.64;45.10;101140.06;2108065;27;47754;-55
2022/08/21 00:53:43;;;;;;;;;7.00;4.20;;;;;23.63;44.69;101146.41;2099191;28;47657;-54
2022/08/21 00:54:45;;;;;;;;;3.00;3.00;;;;;23.60;44.47;101146.63;2105070;27;48761;-53
2022/08/21 00:55:46;;;;;;;;;2.50;2.50;;;;;23.58;44.96;101140.47;2113022;27;47161;-53
2022/08/21 00:56:55;;;;;;;;;3.75;2.75;;;;;23.54;44.64;101142.50;2105788;27;47993;-52
2022/08/21 00:57:58;;;;;;;;;6.20;3.40;;;;;23.48;44.97;101138.34;2106664;27;47786;-52
2022/08/21 00:59:00;;;;;;;;;3.00;3.00;;;;;23.45;44.98;101138.56;2107091;27;46646;-52
2022/08/21 01:00:06;;;;;;;;;3.60;3.40;;;;;23.43;44.87;101137.81;2096577;28;47722;-54
2022/08/21 01:01:08;;;;;;;;;2.20;2.20;;;;;23.42;44.95;101137.91;2098489;28;47979;-50
2022/08/21 01:02:10;;;;;;;;;1.60;1.60;;;;;23.40;45.20;101134.47;2106382;27;47233;-52
2022/08/21 01:03:15;;;;;;;;;2.60;2.60;;;;;23.41;45.10;101138.91;2105689;27;47575;-53
2022/08/21 01:04:16;;;;;;;;;2.00;2.00;;;;;23.40;45.09;101138.03;2106706;27;47817;-52
2022/08/21 01:05:17;;;;;;;;;3.50;3.50;;;;;23.39;45.29;101140.84;2105572;28;47646;-54
2022/08/21 01:06:17;;;;;;;;;3.00;3.00;;;;;23.37;45.15;101131.94;2080096;28;47233;-51
2022/08/21 01:07:19;;;;;;;;;4.33;4.33;;;;;23.37;45.52;101129.22;2080861;28;45600;-53
2022/08/21 01:08:21;;;;;;;;;2.75;2.75;;;;;23.36;45.35;101130.19;2105722;28;47717;-55
2022/08/21 01:09:21;;;;;;;;;3.00;1.50;;;;;23.35;45.42;101132.03;2106400;27;47960;-53
2022/08/21 01:10:22;;;;;;;;;3.00;3.00;;;;;23.36;45.94;101130.19;2106469;27;47945;-53
2022/08/21 01:11:23;;;;;;;;;4.33;4.33;;;;;23.36;45.35;101131.06;2096411;28;47326;-53
2022/08/21 01:12:23;;;;;;;;;2.00;2.00;;;;;23.36;45.44;101133.78;2097285;28;47701;-52
2022/08/21 01:13:26;;;;;;;;;4.50;3.75;;;;;23.37;45.37;101130.09;2105477;28;47464;-50
2022/08/21 01:14:28;;;;;;;;;4.60;3.20;;;;;23.38;45.55;101134.56;2106234;27;47259;-52
2022/08/21 01:15:33;;;;;;;;;2.80;2.80;;;;;23.39;45.65;101135.44;2108172;27;47207;-51
2022/08/21 01:16:34;;;;;;;;;4.00;3.20;;;;;23.40;45.53;101140.75;2113745;27;48075;-53
2022/08/21 01:17:35;;;;;;;;;6.00;3.75;;;;;23.40;45.35;101139.88;2106158;27;47136;-50
2022/08/21 01:18:35;;;;;;;;;2.60;2.60;;;;;23.43;45.55;101147.78;2106665;27;45580;-51
2022/08/21 01:19:36;;;;;;;;;5.75;4.75;;;;;23.42;45.63;101141.50;2096401;28;47495;-49
2022/08/21 01:20:38;;;;;;;;;1.25;1.25;;;;;23.43;45.59;101145.06;2097866;28;47509;-52
2022/08/21 01:21:38;;;;;;;;;3.00;3.00;;;;;23.42;45.53;101143.34;2106440;27;47810;-51
2022/08/21 01:22:39;;;;;;;;;3.00;3.00;;;;;23.42;45.79;101138.78;2105455;28;47414;-53
2022/08/21 01:23:42;;;;;;;;;5.00;5.00;;;;;23.42;45.87;101141.50;2097579;28;47053;-54
2022/08/21 01:24:43;;;;;;;;;3.00;3.00;;;;;23.42;45.55;101146.91;2096938;27;47880;-54
2022/08/21 01:25:43;;;;;;;;;3.25;3.00;;;;;23.44;45.54;101141.38;2106694;27;47623;-52
2022/08/21 01:26:44;;;;;;;;;4.25;4.00;;;;;23.45;45.62;101140.41;2106192;27;48164;-52
2022/08/21 01:27:45;;;;;;;;;4.60;3.80;;;;;23.45;45.47;101138.56;2087417;28;47601;-52
2022/08/21 01:28:54;;;;;;;;;4.00;3.25;;;;;23.46;45.54;101137.59;2087446;28;47459;-54
2022/08/21 01:30:00;;;;;;;;;3.00;3.00;;;;;23.45;45.54;101141.28;2106627;27;47439;-53
2022/08/21 01:31:02;;;;;;;;;4.40;3.60;;;;;23.45;45.71;101152.13;2092428;28;47135;-51
2022/08/21 01:32:07;;;;;;;;;2.00;2.00;;;;;23.46;45.53;101147.56;2096486;28;47759;-50
2022/08/21 01:33:07;;;;;;;;;4.20;4.00;;;;;23.45;45.40;101152.13;2106316;27;47030;-52
2022/08/21 01:34:09;;;;;;;;;4.75;3.50;;;;;23.45;45.64;101151.25;2105304;28;48428;-54
2022/08/21 01:35:11;;;;;;;;;3.60;3.60;;;;;23.43;45.52;101158.63;2106382;27;47493;-52
2022/08/21 01:36:12;;;;;;;;;4.20;4.20;;;;;23.43;45.58;101153.19;2088094;28;48130;-53
2022/08/21 01:37:13;;;;;;;;;3.00;2.25;;;;;23.43;45.84;101148.66;2087367;28;47642;-51
2022/08/21 01:38:14;;;;;;;;;2.20;2.20;;;;;23.44;45.52;101152.22;2087239;28;47244;-57
2022/08/21 01:39:15;;;;;;;;;4.25;2.50;;;;;23.44;45.78;101152.22;2087461;28;47230;-55
2022/08/21 01:40:17;;;;;;;;;3.20;3.20;;;;;23.44;45.63;101154.94;2106513;27;47510;-51
2022/08/21 01:41:18;;;;;;;;;3.80;3.80;;;;;23.44;45.61;101154.94;2105795;27;47632;-53
2022/08/21 01:42:18;;;;;;;;;3.80;3.80;;;;;23.45;45.65;101153.94;2105498;28;47453;-53
2022/08/21 01:43:19;;;;;;;;;2.00;2.00;;;;;23.45;45.76;101156.66;2104638;27;47013;-52
2022/08/21 01:44:23;;;;;;;;;4.00;4.00;;;;;23.44;45.87;101154.94;2106409;27;47455;-53
2022/08/21 01:45:23;;;;;;;;;3.00;3.00;;;;;23.43;45.57;101153.19;2105301;28;47905;-54
2022/08/21 01:46:24;;;;;;;;;4.75;3.00;;;;;23.42;45.65;101156.88;2106185;27;47589;-53
2022/08/21 01:47:25;;;;;;;;;2.00;2.00;;;;;23.41;45.52;101156.00;2096532;28;47526;-51
2022/08/21 01:48:26;;;;;;;;;2.80;2.80;;;;;23.42;45.66;101156.88;2096857;28;47654;-51
2022/08/21 01:49:26;;;;;;;;;3.00;2.75;;;;;23.42;45.67;101156.88;2106400;27;47492;-54
2022/08/21 01:50:27;;;;;;;;;2.25;2.25;;;;;23.40;45.51;101162.41;2105399;28;46520;-52
2022/08/21 01:51:27;;;;;;;;;2.00;2.00;;;;;23.39;45.48;101149.84;2106460;27;47666;-52
2022/08/21 01:52:28;;;;;;;;;3.50;2.75;;;;;23.40;45.64;101154.28;2108285;27;47240;-49
2022/08/21 01:53:29;;;;;;;;;1.80;1.80;;;;;23.40;45.77;101151.56;2104937;28;47759;-52
2022/08/21 01:54:30;;;;;;;;;6.00;4.00;;;;;23.39;45.53;101152.56;2105160;28;47452;-52
2022/08/21 01:55:30;;;;;;;;;4.50;4.50;;;;;23.40;45.90;101156.13;2105154;28;46543;-52
2022/08/21 01:56:44;;;;;;;;;2.00;2.00;;;;;23.39;45.74;101154.38;2106238;27;47615;-51
2022/08/21 01:57:46;;;;;;;;;3.00;3.00;;;;;23.39;45.69;101162.50;2106571;27;47365;-54
2022/08/21 01:58:47;;;;;;;;;3.00;3.00;;;;;23.38;46.00;101155.38;2105333;28;47580;-51
2022/08/21 01:59:47;;;;;;;;;2.20;2.20;;;;;23.37;45.75;101156.31;2096908;28;47625;-50
2022/08/21 02:00:49;;;;;;;;;5.25;2.75;;;;;23.37;45.69;101149.03;2097383;28;46310;-50
2022/08/21 02:01:50;;;;;;;;;2.60;2.60;;;;;23.36;45.68;101139.19;2104985;28;47865;-51
2022/08/21 02:02:51;;;;;;;;;2.80;1.80;;;;;23.37;45.56;101148.19;2106023;27;47395;-51
2022/08/21 02:03:51;;;;;;;;;4.75;3.25;;;;;23.35;45.74;101151.00;2105934;27;47230;-53
2022/08/21 02:04:52;;;;;;;;;3.00;3.00;;;;;23.36;45.99;101143.75;2105550;28;47338;-50
2022/08/21 02:05:52;;;;;;;;;2.00;2.00;;;;;23.34;45.74;101143.84;2106379;27;47268;-53
2022/08/21 02:06:52;;;;;;;;;4.00;3.00;;;;;23.34;45.88;101141.13;2104953;28;47848;-53
2022/08/21 02:07:55;;;;;;;;;4.00;1.75;;;;;23.33;45.86;101134.00;2113550;27;46946;-52
2022/08/21 02:08:55;;;;;;;;;2.40;2.40;;;;;23.33;45.82;101142.13;2111120;27;47183;-52
2022/08/21 02:09:56;;;;;;;;;2.25;2.25;;;;;23.32;46.04;101148.50;2105081;28;47447;-51
2022/08/21 02:10:56;;;;;;;;;3.00;3.00;;;;;23.32;45.79;101147.63;2097146;28;47393;-51
2022/08/21 02:11:57;;;;;;;;;3.25;2.00;;;;;23.32;46.08;101144.94;2097183;28;46352;-54
2022/08/21 02:12:59;;;;;;;;;3.00;3.00;;;;;23.31;46.12;101135.06;2105362;28;47462;-54
2022/08/21 02:14:00;;;;;;;;;4.40;4.40;;;;;23.31;45.93;101137.78;2105988;27;47879;-50
2022/08/21 02:15:03;;;;;;;;;3.00;3.00;;;;;23.30;46.01;101136.91;2096363;28;47252;-51
2022/08/21 02:16:04;;;;;;;;;4.40;3.20;;;;;23.29;46.11;101146.00;2103306;27;46495;-51
2022/08/21 02:17:05;;;;;;;;;3.00;3.00;;;;;23.28;46.01;101136.16;2109209;27;47763;-53
2022/08/21 02:18:06;;;;;;;;;3.00;3.00;;;;;23.28;46.09;101135.28;2096076;28;47118;-51
2022/08/21 02:19:07;;;;;;;;;2.80;2.80;;;;;23.27;45.80;101145.25;2096964;28;47733;-53
2022/08/21 02:20:09;;;;;;;;;3.33;3.33;;;;;23.26;46.15;101137.25;2106342;27;47721;-53
2022/08/21 02:21:09;;;;;;;;;5.00;3.20;;;;;23.26;46.06;101137.25;2105060;28;47742;-52
2022/08/21 02:22:10;;;;;;;;;4.67;2.00;;;;;23.25;46.04;101128.25;2106139;27;47414;-52
2022/08/21 02:23:12;;;;;;;;;2.75;2.75;;;;;23.25;45.89;101133.66;2105918;27;47683;-52
2022/08/21 02:24:12;;;;;;;;;4.60;4.60;;;;;23.25;46.01;101133.66;2105322;28;47897;-51
2022/08/21 02:25:13;;;;;;;;;2.75;2.00;;;;;23.25;46.01;101139.09;2106018;27;48346;-50
2022/08/21 02:26:14;;;;;;;;;3.00;3.00;;;;;23.25;45.98;101143.59;2096532;28;47799;-49
2022/08/21 02:27:14;;;;;;;;;6.50;4.50;;;;;23.24;46.10;101136.44;2096765;28;47869;-55
2022/08/21 02:28:15;;;;;;;;;4.00;4.00;;;;;23.23;46.21;101130.16;2107507;27;47424;-54
2022/08/21 02:29:16;;;;;;;;;3.40;3.00;;;;;23.23;46.12;101135.59;2113595;27;47372;-51
2022/08/21 02:30:32;;;;;;;;;3.00;2.50;;;;;23.24;46.07;101125.63;2108895;27;47413;-50
2022/08/21 02:31:33;;;;;;;;;3.60;3.60;;;;;23.24;45.92;101126.50;2105648;27;47688;-52
2022/08/21 02:32:33;;;;;;;;;6.00;3.75;;;;;23.23;46.15;101130.16;2086925;28;47421;-54
2022/08/21 02:33:34;;;;;;;;;4.00;4.00;;;;;23.22;46.05;101120.31;2088155;28;47410;-53
2022/08/21 02:34:35;;;;;;;;;3.75;3.75;;;;;23.22;46.26;101119.44;2106241;27;47552;-54
2022/08/21 02:35:36;;;;;;;;;3.25;3.25;;;;;23.20;45.91;101125.84;2113472;27;47283;-52
2022/08/21 02:36:37;;;;;;;;;3.00;3.00;;;;;23.19;46.13;101121.41;2109149;27;47699;-53
2022/08/21 02:37:52;;;;;;;;;2.00;2.00;;;;;23.20;46.35;101133.97;2104907;28;47695;-53
2022/08/21 02:38:53;;;;;;;;;3.80;3.80;;;;;23.19;46.38;101132.22;2104988;28;47293;-50
2022/08/21 02:39:53;;;;;;;;;3.00;3.00;;;;;23.18;46.07;101133.19;2096960;28;47187;-51
2022/08/21 02:40:55;;;;;;;;;4.00;3.00;;;;;23.17;46.35;101134.19;2096185;28;47721;-54
2022/08/21 02:41:55;;;;;;;;;3.00;2.40;;;;;23.17;46.52;101138.72;2105167;27;49281;-52
2022/08/21 02:42:56;;;;;;;;;3.00;3.00;;;;;23.17;46.14;101130.59;2108527;27;47702;-54
2022/08/21 02:43:56;;;;;;;;;2.50;2.50;;;;;23.17;46.38;101130.59;2113317;27;47646;-51
2022/08/21 02:44:57;;;;;;;;;3.00;3.00;;;;;23.15;45.97;101136.13;2106666;27;47737;-52
2022/08/21 02:45:57;;;;;;;;;2.75;2.75;;;;;23.16;46.55;101131.56;2096706;28;47142;-50
2022/08/21 02:46:58;;;;;;;;;2.00;2.00;;;;;23.16;46.32;101132.44;2095892;28;47910;-54
2022/08/21 02:48:03;;;;;;;;;4.25;4.00;;;;;23.15;46.28;101132.56;2105265;27;47915;-53
2022/08/21 02:49:03;;;;;;;;;3.80;3.80;;;;;23.14;46.62;101128.09;2105755;27;47924;-51
2022/08/21 02:50:05;;;;;;;;;3.50;3.00;;;;;23.15;46.43;101136.13;2104864;28;47600;-50
2022/08/21 02:51:09;;;;;;;;;4.00;4.00;;;;;23.14;46.39;101128.97;2106027;27;45286;-51
2022/08/21 02:52:11;;;;;;;;;2.00;2.00;;;;;23.14;46.46;101134.38;2107360;27;47695;-53
2022/08/21 02:53:16;;;;;;;;;4.00;4.00;;;;;23.14;46.47;101128.97;2104156;28;47943;-53
2022/08/21 02:54:16;;;;;;;;;3.80;3.80;;;;;23.14;46.62;101142.50;2105362;27;47423;-51
2022/08/21 02:55:17;;;;;;;;;3.50;3.50;;;;;23.15;46.58;101140.66;2095926;28;47618;-54
2022/08/21 02:56:21;;;;;;;;;3.25;3.25;;;;;23.14;46.31;101137.09;2096736;28;48616;-49
2022/08/21 02:57:22;;;;;;;;;5.00;4.00;;;;;23.14;46.52;101141.66;2105873;27;47982;-50
2022/08/21 02:58:26;;;;;;;;;4.50;3.50;;;;;23.14;46.73;101141.66;2108153;27;47933;-52
2022/08/21 02:59:27;;;;;;;;;5.80;3.40;;;;;23.13;46.40;101140.78;2079485;28;47552;-53
2022/08/21 03:00:29;;;;;;;;;4.25;4.25;;;;;23.13;46.53;101143.50;2078731;28;47066;-50
2022/08/21 03:01:30;;;;;;;;;4.25;4.00;;;;;23.12;46.48;101143.56;2105950;27;47590;-50
2022/08/21 03:02:30;;;;;;;;;3.33;3.33;;;;;23.07;46.49;101135.75;2105545;27;47698;-52
2022/08/21 03:03:31;;;;;;;;;4.75;4.50;;;;;23.03;46.58;101139.66;2104902;28;47340;-52
2022/08/21 03:04:31;;;;;;;;;3.33;3.33;;;;;23.00;46.49;101133.59;2105784;27;47576;-53
2022/08/21 03:05:34;;;;;;;;;4.00;3.00;;;;;22.98;46.72;101133.66;2105922;27;47703;-56
2022/08/21 03:06:36;;;;;;;;;4.25;3.25;;;;;22.96;46.79;101138.31;2094990;28;47571;-53
2022/08/21 03:07:37;;;;;;;;;2.40;2.40;;;;;22.95;46.83;101138.41;2096530;28;48055;-53
2022/08/21 03:08:38;;;;;;;;;5.80;5.20;;;;;22.94;46.75;101137.56;2105227;27;47578;-53
2022/08/21 03:09:38;;;;;;;;;3.75;3.75;;;;;22.92;46.82;101136.78;2105019;27;47719;-53
2022/08/21 03:10:42;;;;;;;;;3.75;3.75;;;;;22.92;46.77;101131.38;2105670;27;47783;-54
2022/08/21 03:11:42;;;;;;;;;3.20;3.20;;;;;22.92;46.89;101138.63;2104931;28;47838;-54
2022/08/21 03:12:43;;;;;;;;;4.50;4.50;;;;;22.88;46.65;101133.44;2105601;27;47597;-55
2022/08/21 03:13:43;;;;;;;;;3.25;2.50;;;;;22.87;46.76;101130.81;2105729;27;47509;-51
2022/08/21 03:14:44;;;;;;;;;3.00;3.00;;;;;22.84;47.11;101131.00;2105096;28;47049;-53
2022/08/21 03:15:44;;;;;;;;;6.00;5.00;;;;;22.81;46.89;101133.91;2110249;27;47379;-52
2022/08/21 03:16:45;;;;;;;;;5.00;4.25;;;;;22.77;47.27;101133.22;2102993;28;47343;-54
2022/08/21 03:17:46;;;;;;;;;3.40;3.40;;;;;22.74;47.06;101132.53;2095765;28;47640;-54
2022/08/21 03:18:47;;;;;;;;;5.40;5.40;;;;;22.73;47.16;101130.81;2105557;27;47519;-50
2022/08/21 03:19:47;;;;;;;;;5.00;5.00;;;;;22.72;47.52;101137.19;2104931;28;48067;-52
2022/08/21 03:20:48;;;;;;;;;5.00;4.75;;;;;22.71;47.55;101127.34;2105502;27;47828;-51
2022/08/21 03:21:49;;;;;;;;;5.00;4.00;;;;;22.72;47.48;101123.66;2105863;27;48349;-54
2022/08/21 03:22:50;;;;;;;;;4.00;4.00;;;;;22.73;47.22;101120.84;2104469;28;47550;-52
2022/08/21 03:23:51;;;;;;;;;4.20;3.60;;;;;22.75;47.50;101129.78;2105920;27;47946;-50
2022/08/21 03:24:51;;;;;;;;;5.00;5.00;;;;;22.77;47.57;101118.84;2105502;27;47875;-53
2022/08/21 03:25:52;;;;;;;;;3.25;2.50;;;;;22.78;47.55;101132.25;2104728;28;47556;-53
2022/08/21 03:26:52;;;;;;;;;5.00;5.00;;;;;22.80;47.48;101126.75;2087093;28;47270;-53
2022/08/21 03:27:52;;;;;;;;;4.50;3.25;;;;;22.81;47.85;101133.91;2087010;28;47762;-54
2022/08/21 03:28:53;;;;;;;;;3.50;3.50;;;;;22.80;47.42;101133.03;2105581;27;47435;-50
2022/08/21 03:29:54;;;;;;;;;3.75;3.00;;;;;22.79;47.45;101120.47;2096585;28;47363;-52
2022/08/21 03:30:55;;;;;;;;;7.00;5.40;;;;;22.78;47.17;101124.16;2087307;28;47765;-52
2022/08/21 03:31:55;;;;;;;;;3.50;3.50;;;;;22.77;47.43;101118.84;2096841;28;47479;-52
2022/08/21 03:32:56;;;;;;;;;3.50;3.50;;;;;22.77;47.22;101133.22;2105548;27;47957;-52
2022/08/21 03:33:57;;;;;;;;;6.25;4.75;;;;;22.78;47.47;101120.56;2104558;28;47671;-51
2022/08/21 03:34:58;;;;;;;;;4.75;3.00;;;;;22.78;47.35;101120.56;2105437;27;47566;-53
2022/08/21 03:36:02;;;;;;;;;4.00;4.00;;;;;22.78;47.53;101118.72;2104510;28;47793;-53
2022/08/21 03:37:04;;;;;;;;;2.25;2.00;;;;;22.79;47.34;101120.47;2105547;27;47597;-55
2022/08/21 03:38:05;;;;;;;;;5.50;4.25;;;;;22.81;47.34;101120.38;2096231;28;47475;-54
2022/08/21 03:39:05;;;;;;;;;4.33;4.33;;;;;22.81;47.80;101113.09;2086653;28;47396;-53
2022/08/21 03:40:07;;;;;;;;;5.00;5.00;;;;;22.82;47.92;101108.56;2095693;28;47182;-51
2022/08/21 03:41:08;;;;;;;;;2.50;2.50;;;;;22.82;47.23;101117.56;2073409;28;47837;-51
2022/08/21 03:42:09;;;;;;;;;4.33;4.00;;;;;22.82;47.74;101109.44;2078304;28;47681;-53
2022/08/21 03:43:09;;;;;;;;;5.33;4.00;;;;;22.83;47.46;101104.91;2087218;28;47271;-53
2022/08/21 03:44:11;;;;;;;;;4.00;4.00;;;;;22.83;47.36;101103.06;2087071;28;47427;-49
2022/08/21 03:45:12;;;;;;;;;3.00;3.00;;;;;22.84;47.64;101106.66;2104326;27;47439;-50
2022/08/21 03:46:13;;;;;;;;;3.00;3.00;;;;;22.84;47.57;101099.41;2096162;28;47571;-51
2022/08/21 03:47:13;;;;;;;;;4.00;3.50;;;;;22.85;47.82;101097.56;2095591;28;47482;-51
2022/08/21 03:48:14;;;;;;;;;7.00;4.50;;;;;22.84;47.50;101088.56;2078829;28;47283;-53
2022/08/21 03:49:14;;;;;;;;;3.67;3.67;;;;;22.84;47.53;101090.41;2079126;28;47291;-52
2022/08/21 03:50:15;;;;;;;;;3.00;3.00;;;;;22.83;47.41;101091.38;2104442;28;47313;-53
2022/08/21 03:51:16;;;;;;;;;4.33;4.33;;;;;22.82;47.08;101089.63;2105309;27;47281;-53
2022/08/21 03:52:17;;;;;;;;;5.67;4.67;;;;;22.82;47.68;101087.78;2107014;27;47849;-52
2022/08/21 03:53:17;;;;;;;;;5.75;5.00;;;;;22.82;47.67;101086.91;2111265;27;47581;-51
2022/08/21 03:54:18;;;;;;;;;4.50;4.25;;;;;22.82;47.66;101087.78;2108078;27;47631;-54
2022/08/21 03:55:18;;;;;;;;;4.00;4.00;;;;;22.82;47.59;101087.78;2095740;28;47042;-54
2022/08/21 03:56:19;;;;;;;;;8.25;5.25;;;;;22.81;47.49;101085.19;2096482;28;47814;-53
2022/08/21 03:57:19;;;;;;;;;4.25;4.25;;;;;22.81;47.93;101088.75;2105343;27;47316;-55
2022/08/21 03:58:24;;;;;;;;;5.75;5.25;;;;;22.81;48.05;101087.88;2104726;27;47279;-52
2022/08/21 03:59:24;;;;;;;;;3.00;3.00;;;;;22.81;47.52;101093.31;2105610;27;47989;-52
2022/08/21 04:00:25;;;;;;;;;4.25;4.25;;;;;22.79;47.40;101085.28;2104357;28;47332;-55
2022/08/21 04:01:26;;;;;;;;;6.25;4.50;;;;;22.80;47.78;101092.44;2105859;27;47265;-54
2022/08/21 04:02:27;;;;;;;;;4.00;4.00;;;;;22.80;48.11;101088.88;2105542;27;46797;-50
2022/08/21 04:03:28;;;;;;;;;4.25;4.25;;;;;22.79;47.81;101087.13;2104405;28;47998;-55
2022/08/21 04:04:29;;;;;;;;;4.60;3.60;;;;;22.79;47.72;101089.84;2111270;27;47687;-53
2022/08/21 04:05:30;;;;;;;;;3.80;3.80;;;;;22.78;47.76;101085.41;2112492;27;47534;-52
2022/08/21 04:06:31;;;;;;;;;4.00;4.00;;;;;22.77;47.61;101084.53;2095968;28;47117;-53
2022/08/21 04:07:31;;;;;;;;;3.60;3.60;;;;;22.76;47.69;101085.50;2098306;28;47973;-54
2022/08/21 04:08:32;;;;;;;;;3.50;3.50;;;;;22.75;47.94;101078.34;2106066;27;47539;-54
2022/08/21 04:09:32;;;;;;;;;3.00;3.00;;;;;22.75;47.86;101081.06;2107271;27;47466;-53
2022/08/21 04:10:36;;;;;;;;;3.75;3.75;;;;;22.75;47.62;101082.91;2107684;27;47328;-52
2022/08/21 04:11:36;;;;;;;;;4.60;4.60;;;;;22.74;47.67;101079.34;2106022;28;47963;-48
2022/08/21 04:12:37;;;;;;;;;2.00;2.00;;;;;22.75;47.75;101083.78;2107522;27;47636;-52
2022/08/21 04:13:38;;;;;;;;;5.00;4.00;;;;;22.74;47.93;101079.34;2107462;27;47135;-51
2022/08/21 04:14:38;;;;;;;;;3.50;3.50;;;;;22.76;47.86;101085.50;2105745;28;47952;-51
2022/08/21 04:15:40;;;;;;;;;4.50;3.50;;;;;22.76;47.98;101085.50;2081270;28;47459;-52
2022/08/21 04:16:42;;;;;;;;;4.00;4.00;;;;;22.76;47.87;101080.09;2079667;28;47768;-52
2022/08/21 04:17:42;;;;;;;;;3.60;3.60;;;;;22.75;48.18;101083.78;2105564;28;47976;-53
2022/08/21 04:18:43;;;;;;;;;6.00;4.50;;;;;22.76;47.79;101082.78;2107598;27;48389;-52
2022/08/21 04:19:44;;;;;;;;;5.50;4.00;;;;;22.76;48.10;101082.78;2106031;28;46357;-52
2022/08/21 04:20:48;;;;;;;;;4.00;4.00;;;;;22.77;47.77;101089.94;2114348;27;47027;-53
2022/08/21 04:21:49;;;;;;;;;3.80;3.80;;;;;22.77;47.63;101084.53;2103110;28;47614;-53
2022/08/21 04:22:50;;;;;;;;;3.00;3.00;;;;;22.78;47.56;101090.81;2097168;28;47771;-51
2022/08/21 04:23:50;;;;;;;;;3.75;2.00;;;;;22.76;47.98;101096.31;2107407;27;47923;-55
2022/08/21 04:24:51;;;;;;;;;4.00;4.00;;;;;22.75;47.71;101094.59;2107424;27;47730;-53
2022/08/21 04:25:53;;;;;;;;;4.00;4.00;;;;;22.76;47.69;101088.22;2105831;27;47504;-52
2022/08/21 04:26:53;;;;;;;;;2.00;2.00;;;;;22.76;47.79;101099.03;2111060;27;47615;-49
2022/08/21 04:27:54;;;;;;;;;4.00;3.50;;;;;22.76;47.79;101101.75;2114012;27;47422;-51
2022/08/21 04:28:57;;;;;;;;;3.00;3.00;;;;;22.77;48.13;101102.59;2107237;27;47445;-54
2022/08/21 04:29:57;;;;;;;;;4.00;4.00;;;;;22.77;47.66;101097.19;2107497;27;47895;-54
2022/08/21 04:30:57;;;;;;;;;2.25;2.25;;;;;22.76;47.81;101101.75;2093441;28;47559;-52
2022/08/21 04:31:59;;;;;;;;;3.00;3.00;;;;;22.76;47.73;101109.84;2097285;28;46496;-54
2022/08/21 04:32:59;;;;;;;;;3.75;3.75;;;;;22.74;48.08;101106.38;2107519;27;47456;-52
2022/08/21 04:34:00;;;;;;;;;3.75;3.75;;;;;22.73;47.54;101104.63;2096583;28;47273;-51
2022/08/21 04:35:03;;;;;;;;;1.50;1.50;;;;;22.74;47.54;101113.59;2102378;28;47821;-52
2022/08/21 04:36:05;;;;;;;;;3.00;3.00;;;;;22.74;47.83;101108.19;2114125;27;47225;-52
2022/08/21 04:37:05;;;;;;;;;6.60;5.60;;;;;22.74;47.89;101113.59;2097546;28;47839;-54
2022/08/21 04:38:05;;;;;;;;;5.50;5.50;;;;;22.74;47.82;101109.09;2097914;28;47293;-51
2022/08/21 04:39:06;;;;;;;;;6.50;6.50;;;;;22.74;47.65;101117.22;2106043;28;47843;-53
2022/08/21 04:40:08;;;;;;;;;7.00;5.75;;;;;22.75;47.87;101115.38;2107128;27;47934;-52
2022/08/21 04:41:09;;;;;;;;;6.20;6.20;;;;;22.74;48.03;101116.31;2102183;27;47955;-53
2022/08/21 04:42:10;;;;;;;;;8.00;6.00;;;;;22.72;48.04;101119.13;2105675;28;47080;-52
2022/08/21 04:43:11;;;;;;;;;6.25;6.00;;;;;22.73;47.84;101112.75;2107201;27;47679;-49
2022/08/21 04:44:11;;;;;;;;;5.40;5.40;;;;;22.72;48.09;101118.25;2106713;27;47380;-48
2022/08/21 04:45:44;;;;;;;;;7.75;7.00;;;;;22.72;48.10;101119.13;2114115;27;48119;-52